Time;durP1;ratioP1;P1;durP2;ratioP2;P2;SDS_P1;SDS_P2;PMS_P1;PMS_P2;Temp;Humidity;BMP_temperature;BMP_pressure;BME280_temperature;BME280_humidity;BME280_pressure;Samples;Min_cycle;Max_cycle;Signal;HPM_P1;HPM_P2
2023/12/10 00:02:18;;;;;;;5.65;1.77;;;;;;;;;;4928170;29;20047;-77
2023/12/10 00:04:45;;;;;;;3.38;1.77;;;;;;;;;;4924311;29;20036;-78
2023/12/10 00:07:11;;;;;;;5.72;1.77;;;;;;;;;;4923221;29;20032;-76
2023/12/10 00:09:37;;;;;;;2.50;1.30;;;;;;;;;;4908848;29;20051;-76
2023/12/10 00:12:03;;;;;;;5.38;2.40;;;;;;;;;;4924774;29;20390;-76
2023/12/10 00:14:29;;;;;;;3.65;1.48;;;;;;;;;;4878291;29;20095;-77
2023/12/10 00:16:55;;;;;;;6.43;1.60;;;;;;;;;;4908471;29;20036;-78
2023/12/10 00:19:21;;;;;;;7.15;2.60;;;;;;;;;;4896840;29;20044;-77
2023/12/10 00:21:47;;;;;;;5.95;1.55;;;;;;;;;;4888448;29;20147;-76
2023/12/10 00:24:18;;;;;;;6.75;2.17;;;;;;;;;;4918188;29;20807;-77
2023/12/10 00:26:44;;;;;;;4.55;1.63;;;;;;;;;;4917630;29;20051;-77
2023/12/10 00:29:10;;;;;;;6.32;2.70;;;;;;;;;;4916613;29;20085;-76
2023/12/10 00:31:36;;;;;;;4.72;1.83;;;;;;;;;;4931442;29;20036;-78
2023/12/10 00:34:02;;;;;;;5.80;1.80;;;;;;;;;;4900914;29;20036;-77
2023/12/10 00:36:29;;;;;;;3.50;1.52;;;;;;;;;;4917718;29;20051;-77
2023/12/10 00:39:01;;;;;;;5.65;1.70;;;;;;;;;;4934269;29;20052;-77
2023/12/10 00:41:27;;;;;;;2.85;1.40;;;;;;;;;;4933241;29;20048;-77
2023/12/10 00:43:54;;;;;;;7.32;1.92;;;;;;;;;;4885827;29;20052;-77
2023/12/10 00:46:20;;;;;;;5.68;1.55;;;;;;;;;;4917685;29;20040;-76
2023/12/10 00:48:48;;;;;;;4.65;1.50;;;;;;;;;;4918638;29;20036;-77
2023/12/10 00:51:18;;;;;;;6.65;1.80;;;;;;;;;;4935300;29;20036;-76
2023/12/10 00:53:46;;;;;;;3.67;1.25;;;;;;;;;;4917123;29;20056;-76
2023/12/10 00:56:11;;;;;;;3.38;1.40;;;;;;;;;;4916204;29;20075;-76
2023/12/10 00:58:38;;;;;;;5.00;1.25;;;;;;;;;;4933497;29;20068;-77
2023/12/10 01:01:04;;;;;;;2.88;1.40;;;;;;;;;;4935003;29;20036;-76
2023/12/10 01:03:30;;;;;;;2.58;1.50;;;;;;;;;;4935645;29;20036;-76
2023/12/10 01:05:56;;;;;;;4.07;1.65;;;;;;;;;;4933104;29;20112;-77
2023/12/10 01:08:22;;;;;;;5.75;1.02;;;;;;;;;;4934478;29;20031;-77
2023/12/10 01:10:48;;;;;;;2.45;1.13;;;;;;;;;;4912287;29;20124;-77
2023/12/10 01:13:15;;;;;;;3.20;1.20;;;;;;;;;;4912466;29;20032;-78
2023/12/10 01:15:41;;;;;;;2.63;1.20;;;;;;;;;;4896840;29;20040;-76
2023/12/10 01:18:07;;;;;;;1.75;0.90;;;;;;;;;;4909466;29;20061;-77
2023/12/10 01:20:33;;;;;;;2.55;1.23;;;;;;;;;;4917637;29;20067;-77
2023/12/10 01:23:03;;;;;;;2.75;1.20;;;;;;;;;;4883182;29;20092;-77
2023/12/10 01:25:31;;;;;;;1.63;1.10;;;;;;;;;;4920177;29;20028;-76
2023/12/10 01:27:58;;;;;;;2.45;1.02;;;;;;;;;;4939237;29;20039;-77
2023/12/10 01:30:33;;;;;;;1.75;0.90;;;;;;;;;;4929307;29;20470;-77
2023/12/10 01:32:59;;;;;;;2.92;1.15;;;;;;;;;;4929826;29;20063;-77
2023/12/10 01:35:25;;;;;;;2.58;1.00;;;;;;;;;;4929416;29;20068;-75
2023/12/10 01:37:51;;;;;;;1.65;0.93;;;;;;;;;;4930857;29;20211;-77
2023/12/10 01:40:50;;;;;;;3.35;1.00;;;;;;;;;;4913044;29;20184;-77
2023/12/10 01:43:22;;;;;;;2.42;1.00;;;;;;;;;;4912420;29;20068;-77
2023/12/10 01:45:50;;;;;;;3.58;1.23;;;;;;;;;;4913678;29;20568;-78
2023/12/10 01:48:20;;;;;;;2.57;1.20;;;;;;;;;;4896152;29;20119;-77
2023/12/10 01:50:53;;;;;;;1.90;1.10;;;;;;;;;;4927027;29;20064;-77
2023/12/10 01:54:08;;;;;;;2.08;1.00;;;;;;;;;;4911822;29;20048;-77
2023/12/10 01:57:14;;;;;;;3.00;0.77;;;;;;;;;;4877691;29;20033;-77
2023/12/10 02:00:38;;;;;;;2.20;0.90;;;;;;;;;;4887867;29;20141;-77
2023/12/10 02:03:55;;;;;;;1.95;0.90;;;;;;;;;;4888476;29;20037;-77
2023/12/10 02:07:53;;;;;;;2.65;1.10;;;;;;;;;;4882044;29;20041;-76
2023/12/10 02:11:22;;;;;;;7.68;0.90;;;;;;;;;;4854263;29;20128;-75
2023/12/10 02:14:44;;;;;;;2.35;0.60;;;;;;;;;;4885899;29;20048;-76
2023/12/10 02:17:43;;;;;;;1.70;0.85;;;;;;;;;;4894298;29;20094;-77
2023/12/10 02:20:24;;;;;;;1.88;0.80;;;;;;;;;;4895142;29;20100;-76
2023/12/10 02:24:16;;;;;;;3.50;0.88;;;;;;;;;;4887823;29;20132;-77
2023/12/10 02:27:20;;;;;;;4.18;0.90;;;;;;;;;;4875143;29;20046;-78
2023/12/10 02:29:50;;;;;;;2.95;1.05;;;;;;;;;;4862731;29;20033;-78
2023/12/10 02:32:20;;;;;;;1.92;0.90;;;;;;;;;;4862681;29;20105;-76
2023/12/10 02:34:54;;;;;;;;;;;;;;;;;;4880266;29;20035;-76
2023/12/10 02:38:07;;;;;;;2.40;0.90;;;;;;;;;;4872166;29;19948;-76
2023/12/10 02:41:51;;;;;;;1.67;0.82;;;;;;;;;;4877497;29;20037;-75
2023/12/10 02:45:10;;;;;;;2.50;1.10;;;;;;;;;;4878642;29;20053;-76
2023/12/10 02:48:58;;;;;;;1.35;0.70;;;;;;;;;;4894699;29;20087;-75
2023/12/10 02:55:14;;;;;;;3.50;1.20;;;;;;;;;;5045152;23;20074;-78
2023/12/10 03:01:04;;;;;;;4.05;1.50;;;;;;;;;;5009005;28;20094;-75
2023/12/10 03:03:38;;;;;;;2.58;1.25;;;;;;;;;;4953097;28;20051;-76
2023/12/10 03:06:43;;;;;;;3.38;1.42;;;;;;;;;;4996193;28;20076;-75
2023/12/10 03:10:13;;;;;;;2.35;0.90;;;;;;;;;;4962284;29;20071;-75
2023/12/10 03:13:42;;;;;;;1.75;1.08;;;;;;;;;;4949582;29;20046;-76
2023/12/10 03:16:09;;;;;;;2.63;1.30;;;;;;;;;;4932658;29;20047;-74
2023/12/10 03:18:44;;;;;;;5.00;1.25;;;;;;;;;;4950286;29;20051;-76
2023/12/10 03:21:09;;;;;;;5.38;1.10;;;;;;;;;;4927654;29;20038;-75
2023/12/10 03:23:45;;;;;;;2.97;1.48;;;;;;;;;;4913217;29;20039;-77
2023/12/10 03:26:12;;;;;;;4.43;1.45;;;;;;;;;;4912007;29;20044;-75
2023/12/10 03:28:37;;;;;;;2.55;1.23;;;;;;;;;;4912266;29;20043;-74
2023/12/10 03:31:03;;;;;;;5.18;1.23;;;;;;;;;;4913249;29;20187;-75
2023/12/10 03:33:50;;;;;;;6.57;1.70;;;;;;;;;;4935564;29;20075;-76
2023/12/10 03:36:34;;;;;;;1.73;0.98;;;;;;;;;;4951091;29;20075;-76
2023/12/10 03:39:40;;;;;;;4.25;1.15;;;;;;;;;;4977804;28;20048;-76
2023/12/10 03:42:21;;;;;;;5.13;1.17;;;;;;;;;;4979939;28;20038;-75
2023/12/10 03:44:48;;;;;;;2.55;0.90;;;;;;;;;;4974337;28;20046;-77
2023/12/10 03:47:14;;;;;;;4.75;1.17;;;;;;;;;;4938542;28;20057;-76
2023/12/10 03:49:41;;;;;;;6.13;1.30;;;;;;;;;;4966691;28;20031;-76
2023/12/10 03:52:16;;;;;;;4.57;1.55;;;;;;;;;;4976575;28;20049;-75
2023/12/10 03:54:42;;;;;;;4.43;1.23;;;;;;;;;;4973172;28;20038;-77
2023/12/10 03:57:09;;;;;;;4.20;1.38;;;;;;;;;;4958424;28;20038;-77
2023/12/10 03:59:36;;;;;;;4.90;1.45;;;;;;;;;;4992078;28;20031;-76
2023/12/10 04:02:02;;;;;;;9.90;1.92;;;;;;;;;;4975996;28;20038;-77
2023/12/10 04:04:28;;;;;;;5.70;1.50;;;;;;;;;;5007318;28;20030;-77
2023/12/10 04:06:54;;;;;;;5.85;1.20;;;;;;;;;;4990176;28;20038;-76
2023/12/10 04:09:20;;;;;;;4.43;1.42;;;;;;;;;;5005423;28;20090;-77
2023/12/10 04:11:46;;;;;;;4.20;1.02;;;;;;;;;;4988770;28;20034;-77
2023/12/10 04:14:13;;;;;;;10.05;1.20;;;;;;;;;;4956808;28;20030;-77
2023/12/10 04:16:39;;;;;;;8.13;1.40;;;;;;;;;;4973047;28;20042;-76
2023/12/10 04:19:05;;;;;;;5.47;1.23;;;;;;;;;;4957824;28;20038;-77
2023/12/10 04:21:31;;;;;;;6.03;1.30;;;;;;;;;;4957612;28;20038;-77
2023/12/10 04:23:56;;;;;;;6.65;1.40;;;;;;;;;;4955191;28;20042;-77
2023/12/10 04:26:22;;;;;;;6.10;1.80;;;;;;;;;;4969900;28;20058;-76
2023/12/10 04:28:48;;;;;;;8.15;1.17;;;;;;;;;;4969830;28;20030;-79
2023/12/10 04:31:14;;;;;;;6.13;1.25;;;;;;;;;;4954064;28;20030;-76
2023/12/10 04:33:40;;;;;;;4.03;1.13;;;;;;;;;;4987883;28;20082;-76
2023/12/10 04:36:06;;;;;;;11.10;1.75;;;;;;;;;;4987324;28;20031;-76
2023/12/10 04:38:32;;;;;;;7.00;1.30;;;;;;;;;;4954691;28;20035;-77
2023/12/10 04:40:57;;;;;;;5.57;1.38;;;;;;;;;;4997212;28;20022;-76
2023/12/10 04:43:23;;;;;;;6.53;1.38;;;;;;;;;;4986892;28;20047;-77
2023/12/10 04:45:50;;;;;;;5.13;1.15;;;;;;;;;;4971739;28;20039;-76
2023/12/10 04:48:16;;;;;;;5.60;1.20;;;;;;;;;;4990414;28;20030;-75
2023/12/10 04:50:42;;;;;;;8.30;1.42;;;;;;;;;;4973236;28;20463;-76
2023/12/10 04:53:07;;;;;;;5.32;1.15;;;;;;;;;;4971499;28;20038;-75
2023/12/10 04:55:33;;;;;;;5.88;1.52;;;;;;;;;;4972064;28;20048;-75
2023/12/10 04:57:59;;;;;;;7.38;1.60;;;;;;;;;;4955370;28;20034;-75
2023/12/10 05:00:25;;;;;;;7.22;1.67;;;;;;;;;;4974770;28;20116;-76
2023/12/10 05:02:51;;;;;;;5.57;1.40;;;;;;;;;;4992617;28;20030;-76
2023/12/10 05:05:18;;;;;;;10.88;1.48;;;;;;;;;;4992201;28;20082;-76
2023/12/10 05:07:45;;;;;;;7.22;1.77;;;;;;;;;;4958417;28;20141;-76
2023/12/10 05:10:10;;;;;;;6.38;1.73;;;;;;;;;;4974867;28;20033;-75
2023/12/10 05:12:37;;;;;;;6.45;1.55;;;;;;;;;;4975927;28;20026;-76
2023/12/10 05:15:03;;;;;;;13.10;1.60;;;;;;;;;;4969368;28;20052;-75
2023/12/10 05:17:30;;;;;;;9.07;1.40;;;;;;;;;;4976014;28;20060;-75
2023/12/10 05:19:56;;;;;;;4.57;1.33;;;;;;;;;;4959669;28;20041;-75
2023/12/10 05:22:24;;;;;;;11.15;1.80;;;;;;;;;;5007167;28;20041;-76
2023/12/10 05:24:50;;;;;;;11.43;1.85;;;;;;;;;;4990174;28;20034;-76
2023/12/10 05:27:20;;;;;;;5.75;1.50;;;;;;;;;;4958399;28;20038;-76
2023/12/10 05:30:11;;;;;;;7.57;1.65;;;;;;;;;;4995272;28;20035;-75
2023/12/10 05:32:38;;;;;;;8.75;1.60;;;;;;;;;;4973538;28;20498;-76
2023/12/10 05:35:04;;;;;;;11.82;1.88;;;;;;;;;;4959270;28;20044;-76
2023/12/10 05:37:30;;;;;;;11.48;1.60;;;;;;;;;;4991976;28;20041;-76
2023/12/10 05:39:56;;;;;;;12.52;1.90;;;;;;;;;;4961546;28;20038;-75
2023/12/10 05:42:23;;;;;;;8.82;1.70;;;;;;;;;;4977419;28;20102;-76
2023/12/10 05:44:48;;;;;;;11.77;1.60;;;;;;;;;;4945464;28;20038;-75
2023/12/10 05:47:14;;;;;;;10.57;1.63;;;;;;;;;;4958098;28;20529;-75
2023/12/10 05:49:40;;;;;;;8.38;1.80;;;;;;;;;;4925579;28;20042;-76
2023/12/10 05:52:06;;;;;;;9.43;1.50;;;;;;;;;;4954739;28;20034;-75
2023/12/10 05:54:32;;;;;;;8.05;1.65;;;;;;;;;;4968992;28;20038;-74
2023/12/10 05:56:58;;;;;;;7.80;1.55;;;;;;;;;;4959625;28;20046;-76
2023/12/10 05:59:23;;;;;;;10.32;2.20;;;;;;;;;;4976737;28;20045;-76
2023/12/10 06:01:50;;;;;;;7.93;1.20;;;;;;;;;;4977732;28;20034;-76
2023/12/10 06:04:17;;;;;;;5.70;1.55;;;;;;;;;;4992828;28;20026;-76
2023/12/10 06:06:42;;;;;;;12.07;1.42;;;;;;;;;;4975628;28;20041;-74
2023/12/10 06:09:09;;;;;;;9.55;1.67;;;;;;;;;;4970896;28;20034;-76
2023/12/10 06:11:35;;;;;;;8.10;1.88;;;;;;;;;;4955695;28;20132;-75
2023/12/10 06:14:00;;;;;;;7.53;1.83;;;;;;;;;;4971801;28;20379;-76
2023/12/10 06:16:26;;;;;;;11.60;1.98;;;;;;;;;;4971558;28;20034;-75
2023/12/10 06:18:52;;;;;;;9.02;1.42;;;;;;;;;;4989479;28;20098;-77
2023/12/10 06:21:17;;;;;;;12.55;2.05;;;;;;;;;;4971327;28;20034;-77
2023/12/10 06:23:43;;;;;;;6.53;1.60;;;;;;;;;;4964968;28;20042;-76
2023/12/10 06:26:09;;;;;;;17.15;2.13;;;;;;;;;;4945990;28;20078;-76
2023/12/10 06:28:34;;;;;;;9.60;2.15;;;;;;;;;;4962074;28;20034;-76
2023/12/10 06:31:00;;;;;;;8.93;1.70;;;;;;;;;;4981760;28;20023;-77
2023/12/10 06:33:25;;;;;;;8.55;1.83;;;;;;;;;;4981875;28;20027;-76
2023/12/10 06:35:51;;;;;;;13.23;1.77;;;;;;;;;;4963462;28;20077;-76
2023/12/10 06:38:17;;;;;;;13.48;2.83;;;;;;;;;;4964311;28;20041;-76
2023/12/10 06:40:42;;;;;;;9.00;2.05;;;;;;;;;;4992457;28;20038;-76
2023/12/10 06:43:08;;;;;;;10.02;2.13;;;;;;;;;;4985542;28;20451;-76
2023/12/10 06:45:33;;;;;;;12.07;2.55;;;;;;;;;;4984893;28;20113;-76
2023/12/10 06:48:00;;;;;;;8.80;2.17;;;;;;;;;;4985138;28;20126;-76
2023/12/10 06:50:26;;;;;;;11.65;2.30;;;;;;;;;;4985652;28;20030;-76
2023/12/10 06:52:52;;;;;;;9.95;1.75;;;;;;;;;;4983864;28;20041;-76
2023/12/10 06:55:17;;;;;;;11.32;2.65;;;;;;;;;;4984868;28;20038;-76
2023/12/10 06:57:43;;;;;;;8.48;1.75;;;;;;;;;;4996836;28;20038;-77
2023/12/10 07:00:09;;;;;;;11.20;1.50;;;;;;;;;;4982296;28;20038;-76
2023/12/10 07:02:34;;;;;;;10.73;2.47;;;;;;;;;;4983025;28;20442;-79
2023/12/10 07:05:01;;;;;;;15.10;2.20;;;;;;;;;;5000822;28;20038;-76
2023/12/10 07:07:27;;;;;;;13.82;2.40;;;;;;;;;;4983820;28;20037;-76
2023/12/10 07:09:53;;;;;;;9.80;1.95;;;;;;;;;;4985930;28;20483;-75
2023/12/10 07:12:19;;;;;;;14.48;2.28;;;;;;;;;;4968314;28;20035;-77
2023/12/10 07:14:44;;;;;;;12.18;2.63;;;;;;;;;;4953871;28;20469;-77
2023/12/10 07:17:10;;;;;;;13.13;2.53;;;;;;;;;;4963985;28;20031;-76
2023/12/10 07:19:36;;;;;;;12.57;2.58;;;;;;;;;;4963608;28;20031;-75
2023/12/10 07:22:01;;;;;;;12.85;2.00;;;;;;;;;;4984476;28;20396;-76
2023/12/10 07:24:27;;;;;;;12.77;2.35;;;;;;;;;;4965071;28;20035;-76
2023/12/10 07:26:53;;;;;;;15.73;2.63;;;;;;;;;;4965199;28;20073;-76
2023/12/10 07:29:19;;;;;;;8.80;2.03;;;;;;;;;;4965028;28;20034;-76
2023/12/10 07:31:44;;;;;;;12.98;2.03;;;;;;;;;;4975243;28;20063;-77
2023/12/10 07:34:10;;;;;;;14.63;2.50;;;;;;;;;;4973252;28;20034;-76
2023/12/10 07:36:35;;;;;;;15.07;3.10;;;;;;;;;;4989817;28;20034;-75
2023/12/10 07:39:01;;;;;;;14.43;2.22;;;;;;;;;;4992777;28;20034;-75
2023/12/10 07:41:26;;;;;;;9.82;2.33;;;;;;;;;;4996688;28;20103;-74
2023/12/10 07:43:52;;;;;;;27.17;4.38;;;;;;;;;;5000698;28;20035;-75
2023/12/10 07:46:18;;;;;;;16.30;2.47;;;;;;;;;;4994867;28;20030;-74
2023/12/10 07:48:43;;;;;;;12.75;2.45;;;;;;;;;;4991163;28;20078;-75
2023/12/10 07:51:09;;;;;;;13.95;1.77;;;;;;;;;;4990661;28;20026;-76
2023/12/10 07:53:35;;;;;;;13.68;2.45;;;;;;;;;;4989999;28;20034;-75
2023/12/10 07:56:00;;;;;;;13.25;2.45;;;;;;;;;;5009033;28;20399;-75
2023/12/10 07:58:26;;;;;;;11.52;2.28;;;;;;;;;;5006712;28;20098;-75
2023/12/10 08:00:52;;;;;;;15.25;2.33;;;;;;;;;;4988149;28;20065;-75
2023/12/10 08:03:17;;;;;;;17.38;2.65;;;;;;;;;;4988664;28;20053;-75
2023/12/10 08:05:43;;;;;;;12.68;2.75;;;;;;;;;;4988492;28;20037;-76
2023/12/10 08:08:09;;;;;;;12.93;2.30;;;;;;;;;;4989105;28;20026;-75
2023/12/10 08:10:34;;;;;;;18.65;3.13;;;;;;;;;;4989287;28;20038;-75
2023/12/10 08:13:00;;;;;;;14.55;2.88;;;;;;;;;;4986166;28;20411;-74
2023/12/10 08:15:26;;;;;;;11.18;2.72;;;;;;;;;;4970014;28;20027;-76
2023/12/10 08:17:52;;;;;;;15.13;2.75;;;;;;;;;;4955737;28;20057;-76
2023/12/10 08:20:17;;;;;;;16.27;2.60;;;;;;;;;;4969843;28;20038;-75
2023/12/10 08:22:43;;;;;;;14.70;2.42;;;;;;;;;;4972388;28;20038;-76
2023/12/10 08:25:09;;;;;;;20.58;4.03;;;;;;;;;;4988773;28;20034;-76
2023/12/10 08:27:34;;;;;;;19.45;5.32;;;;;;;;;;4985224;28;20042;-76
2023/12/10 08:30:00;;;;;;;14.38;2.72;;;;;;;;;;4986057;28;20035;-76
2023/12/10 08:32:27;;;;;;;14.32;3.30;;;;;;;;;;5004142;28;20027;-76
2023/12/10 08:34:53;;;;;;;28.52;4.85;;;;;;;;;;4972461;28;20034;-76
2023/12/10 08:37:19;;;;;;;21.60;3.13;;;;;;;;;;4985284;28;20491;-77
2023/12/10 08:39:47;;;;;;;19.90;6.43;;;;;;;;;;4968076;28;20034;-76
2023/12/10 08:42:13;;;;;;;17.50;3.90;;;;;;;;;;5002238;28;20073;-76
2023/12/10 08:44:38;;;;;;;20.60;3.80;;;;;;;;;;4982170;28;20446;-77
2023/12/10 08:47:04;;;;;;;20.92;3.70;;;;;;;;;;4982894;28;20042;-76
2023/12/10 08:49:30;;;;;;;13.80;2.78;;;;;;;;;;5002586;28;20038;-75
2023/12/10 08:51:56;;;;;;;18.10;2.70;;;;;;;;;;4986042;28;20041;-75
2023/12/10 08:54:21;;;;;;;15.13;2.92;;;;;;;;;;5002747;28;20038;-75
2023/12/10 08:56:47;;;;;;;21.70;3.28;;;;;;;;;;4986878;28;20054;-76
2023/12/10 08:59:13;;;;;;;18.42;3.50;;;;;;;;;;4985301;28;20039;-76
2023/12/10 09:01:39;;;;;;;19.13;2.60;;;;;;;;;;4952944;28;20034;-76
2023/12/10 09:04:05;;;;;;;28.55;3.22;;;;;;;;;;4968826;28;20034;-76
2023/12/10 09:06:34;;;;;;;22.25;2.63;;;;;;;;;;4969259;28;20097;-75
2023/12/10 09:09:00;;;;;;;20.52;3.20;;;;;;;;;;4968728;28;20038;-75
2023/12/10 09:11:30;;;;;;;22.10;3.30;;;;;;;;;;4986885;28;20038;-75
2023/12/10 09:13:56;;;;;;;12.40;2.60;;;;;;;;;;4972532;28;20030;-76
2023/12/10 09:16:26;;;;;;;21.17;3.03;;;;;;;;;;4970871;28;20037;-76
2023/12/10 09:18:53;;;;;;;25.63;3.45;;;;;;;;;;4953896;28;20077;-75
2023/12/10 09:21:26;;;;;;;18.10;2.92;;;;;;;;;;4985641;28;20487;-76
2023/12/10 09:23:52;;;;;;;16.83;2.25;;;;;;;;;;5002682;28;20434;-77
2023/12/10 09:26:19;;;;;;;11.00;2.67;;;;;;;;;;4991574;28;20062;-77
2023/12/10 09:28:45;;;;;;;10.90;2.35;;;;;;;;;;4965726;28;20062;-76
2023/12/10 09:31:11;;;;;;;17.60;1.98;;;;;;;;;;4968901;28;20109;-77
2023/12/10 09:33:37;;;;;;;17.52;3.05;;;;;;;;;;4968636;28;20037;-77
2023/12/10 09:36:05;;;;;;;13.90;1.92;;;;;;;;;;4983268;28;20070;-77
2023/12/10 09:38:31;;;;;;;9.68;2.80;;;;;;;;;;4967809;28;20497;-77
2023/12/10 09:40:58;;;;;;;11.30;2.30;;;;;;;;;;4984683;28;20065;-79
2023/12/10 09:43:24;;;;;;;12.70;1.88;;;;;;;;;;4984419;28;20034;-77
2023/12/10 09:45:50;;;;;;;17.17;2.97;;;;;;;;;;5000893;28;20042;-76
2023/12/10 09:48:17;;;;;;;9.70;2.25;;;;;;;;;;4968213;28;20179;-77
2023/12/10 09:50:42;;;;;;;21.92;2.85;;;;;;;;;;4984536;28;20460;-77
2023/12/10 09:53:08;;;;;;;9.80;1.90;;;;;;;;;;4952641;28;20034;-77
2023/12/10 09:55:35;;;;;;;13.73;2.90;;;;;;;;;;4983964;28;20038;-77
2023/12/10 09:58:01;;;;;;;19.70;3.00;;;;;;;;;;4969232;28;20447;-77
2023/12/10 10:00:28;;;;;;;16.35;2.83;;;;;;;;;;4953913;28;20046;-78
2023/12/10 10:03:02;;;;;;;16.05;2.53;;;;;;;;;;4986527;28;20041;-78
2023/12/10 10:05:28;;;;;;;14.02;2.80;;;;;;;;;;4987256;28;20050;-78
2023/12/10 10:07:54;;;;;;;14.15;2.53;;;;;;;;;;4957252;28;20065;-77
2023/12/10 10:10:22;;;;;;;17.45;1.92;;;;;;;;;;4956165;28;20098;-77
2023/12/10 10:12:48;;;;;;;18.50;3.20;;;;;;;;;;4971455;28;20034;-76
2023/12/10 10:15:13;;;;;;;17.63;2.50;;;;;;;;;;4972195;28;20043;-77
2023/12/10 10:17:42;;;;;;;17.02;2.15;;;;;;;;;;4975131;28;20042;-76
2023/12/10 10:20:09;;;;;;;16.42;2.92;;;;;;;;;;4975212;28;20082;-77
2023/12/10 10:22:35;;;;;;;12.25;2.55;;;;;;;;;;4978120;28;20051;-76
2023/12/10 10:25:03;;;;;;;11.55;2.72;;;;;;;;;;4943362;28;20031;-77
2023/12/10 10:27:32;;;;;;;14.65;3.08;;;;;;;;;;4959308;28;20027;-77
2023/12/10 10:29:57;;;;;;;15.48;2.35;;;;;;;;;;5002879;28;20028;-76
2023/12/10 10:32:23;;;;;;;10.65;1.92;;;;;;;;;;4971413;28;20034;-76
2023/12/10 10:34:49;;;;;;;12.55;2.17;;;;;;;;;;5004968;28;20050;-76
2023/12/10 10:37:17;;;;;;;9.35;1.83;;;;;;;;;;4974652;28;20034;-77
2023/12/10 10:39:43;;;;;;;9.98;1.70;;;;;;;;;;5005688;28;20090;-76
2023/12/10 10:42:10;;;;;;;10.15;2.30;;;;;;;;;;4999668;28;20069;-77
2023/12/10 10:44:40;;;;;;;11.35;2.50;;;;;;;;;;4956757;28;20046;-76
2023/12/10 10:47:07;;;;;;;8.93;1.25;;;;;;;;;;4989574;28;20041;-76
2023/12/10 10:49:38;;;;;;;10.98;1.77;;;;;;;;;;4993146;28;20041;-76
2023/12/10 10:52:06;;;;;;;5.43;1.27;;;;;;;;;;5006986;28;20030;-76
2023/12/10 10:54:33;;;;;;;5.75;1.10;;;;;;;;;;4988682;28;20026;-77
2023/12/10 10:56:59;;;;;;;6.78;1.40;;;;;;;;;;4989079;28;20038;-77
2023/12/10 10:59:29;;;;;;;6.60;1.00;;;;;;;;;;4974488;28;20402;-78
2023/12/10 11:01:55;;;;;;;7.85;1.10;;;;;;;;;;4974328;28;20515;-76
2023/12/10 11:04:39;;;;;;;9.35;1.13;;;;;;;;;;5008906;28;20030;-77
2023/12/10 11:07:05;;;;;;;4.45;1.10;;;;;;;;;;4991752;28;20109;-76
2023/12/10 11:09:31;;;;;;;12.30;0.90;;;;;;;;;;4992862;28;20026;-77
2023/12/10 11:11:58;;;;;;;8.77;1.33;;;;;;;;;;4958671;28;20068;-76
2023/12/10 11:14:24;;;;;;;5.28;1.08;;;;;;;;;;4974353;28;20026;-77
2023/12/10 11:16:56;;;;;;;3.92;0.70;;;;;;;;;;4969749;28;20034;-76
2023/12/10 11:19:22;;;;;;;5.03;0.90;;;;;;;;;;4938960;28;20046;-76
2023/12/10 11:21:49;;;;;;;7.63;1.27;;;;;;;;;;4968041;28;20038;-77
2023/12/10 11:24:15;;;;;;;7.70;1.25;;;;;;;;;;4964334;28;20046;-77
2023/12/10 11:26:41;;;;;;;4.93;0.77;;;;;;;;;;4969633;28;20054;-77
2023/12/10 11:29:07;;;;;;;3.67;0.98;;;;;;;;;;4971675;28;20094;-76
2023/12/10 11:31:37;;;;;;;4.32;0.98;;;;;;;;;;4972399;28;20034;-76
2023/12/10 11:34:05;;;;;;;;;;;;;;;;;;4944110;28;20023;-76
2023/12/10 11:36:31;;;;;;;2.25;0.50;;;;;;;;;;4983146;28;19910;-76
2023/12/10 11:38:56;;;;;;;4.57;0.98;;;;;;;;;;4990509;28;20411;-75
2023/12/10 11:41:22;;;;;;;7.60;1.05;;;;;;;;;;4969304;28;20042;-76
2023/12/10 11:43:48;;;;;;;3.20;0.70;;;;;;;;;;4991394;28;20026;-76
2023/12/10 11:46:24;;;;;;;6.45;1.02;;;;;;;;;;4973286;28;20065;-75
2023/12/10 11:48:50;;;;;;;6.55;0.95;;;;;;;;;;4992848;28;20026;-76
2023/12/10 11:51:16;;;;;;;8.38;1.60;;;;;;;;;;4992216;28;20033;-77
2023/12/10 11:53:43;;;;;;;3.55;0.98;;;;;;;;;;4989657;28;20069;-77
2023/12/10 11:56:09;;;;;;;5.65;1.33;;;;;;;;;;4970707;28;20062;-77
2023/12/10 11:58:35;;;;;;;4.68;1.08;;;;;;;;;;4987854;28;20039;-76
2023/12/10 12:01:02;;;;;;;7.60;0.95;;;;;;;;;;4991575;28;20038;-76
2023/12/10 12:03:32;;;;;;;7.20;1.52;;;;;;;;;;4957716;28;20026;-76
2023/12/10 12:05:59;;;;;;;5.38;0.90;;;;;;;;;;4988628;28;20038;-76
2023/12/10 12:08:28;;;;;;;6.82;0.88;;;;;;;;;;4974936;28;20034;-76
2023/12/10 12:14:51;;;;;;;4.53;1.08;;;;;;;;;;4941457;29;20075;-77
2023/12/10 12:17:26;;;;;;;6.22;1.23;;;;;;;;;;4911356;29;20036;-76
2023/12/10 12:19:53;;;;;;;9.95;1.27;;;;;;;;;;4896428;29;20076;-78
2023/12/10 12:22:19;;;;;;;7.45;1.35;;;;;;;;;;4897197;29;20072;-75
2023/12/10 12:25:02;;;;;;;5.60;1.00;;;;;;;;;;4893236;29;20052;-79
2023/12/10 12:35:14;;;;;;;10.57;3.75;;;;;;;;;;4899255;29;20106;-78
2023/12/10 12:37:42;;;;;;;4.85;1.60;;;;;;;;;;4866271;29;20045;-76
2023/12/10 12:40:10;;;;;;;5.90;1.48;;;;;;;;;;4881969;29;20040;-77
2023/12/10 12:42:40;;;;;;;5.30;1.02;;;;;;;;;;4906988;29;20068;-77
2023/12/10 12:45:32;;;;;;;5.95;1.58;;;;;;;;;;4886252;29;20100;-76
2023/12/10 12:47:58;;;;;;;5.75;0.90;;;;;;;;;;4892516;29;20080;-77
2023/12/10 12:50:24;;;;;;;4.18;0.98;;;;;;;;;;4891098;29;20063;-77
2023/12/10 12:52:51;;;;;;;6.57;1.20;;;;;;;;;;4920954;29;20152;-77
2023/12/10 12:55:21;;;;;;;5.72;0.90;;;;;;;;;;4895345;29;20099;-77
2023/12/10 12:57:48;;;;;;;4.80;1.10;;;;;;;;;;4920598;29;20079;-76
2023/12/10 13:00:16;;;;;;;7.88;1.08;;;;;;;;;;4930696;29;20063;-76
2023/12/10 13:02:44;;;;;;;6.10;1.20;;;;;;;;;;4914805;29;20047;-76
2023/12/10 13:05:10;;;;;;;3.35;1.05;;;;;;;;;;4913418;29;20047;-76
2023/12/10 13:07:36;;;;;;;9.48;1.85;;;;;;;;;;4922097;28;20491;-76
2023/12/10 13:10:02;;;;;;;6.53;1.33;;;;;;;;;;5010335;28;20033;-76
2023/12/10 13:12:28;;;;;;;4.80;1.40;;;;;;;;;;5000308;28;20034;-76
2023/12/10 13:14:55;;;;;;;12.23;1.60;;;;;;;;;;4978307;28;20069;-76
2023/12/10 13:17:21;;;;;;;6.85;1.30;;;;;;;;;;4991518;28;20034;-79
2023/12/10 13:19:47;;;;;;;9.77;1.30;;;;;;;;;;4974561;28;20093;-76
2023/12/10 13:22:14;;;;;;;7.90;1.38;;;;;;;;;;4957478;28;20106;-76
2023/12/10 13:24:40;;;;;;;9.80;1.42;;;;;;;;;;4990769;28;20057;-77
2023/12/10 13:27:06;;;;;;;7.85;1.60;;;;;;;;;;4973546;28;20042;-76
2023/12/10 13:29:32;;;;;;;13.05;1.40;;;;;;;;;;4973437;28;20034;-76
2023/12/10 13:32:01;;;;;;;5.95;1.52;;;;;;;;;;4973285;28;20051;-76
2023/12/10 13:34:27;;;;;;;6.60;1.55;;;;;;;;;;4994230;28;20033;-77
2023/12/10 13:36:53;;;;;;;9.05;1.42;;;;;;;;;;5002250;28;20030;-76
2023/12/10 13:39:20;;;;;;;13.02;1.67;;;;;;;;;;4983466;28;20038;-76
2023/12/10 13:42:12;;;;;;;6.28;1.17;;;;;;;;;;4966471;28;20172;-76
2023/12/10 13:44:38;;;;;;;7.60;1.45;;;;;;;;;;4994456;28;20026;-76
2023/12/10 13:47:04;;;;;;;15.10;1.67;;;;;;;;;;4969374;28;20050;-75
2023/12/10 13:49:29;;;;;;;13.00;1.83;;;;;;;;;;4987718;28;20043;-76
2023/12/10 13:51:55;;;;;;;11.98;2.00;;;;;;;;;;4969070;28;20066;-76
2023/12/10 13:54:21;;;;;;;8.05;1.50;;;;;;;;;;4987444;28;20098;-76
2023/12/10 13:56:48;;;;;;;14.50;1.90;;;;;;;;;;4974243;28;20053;-76
2023/12/10 13:59:17;;;;;;;9.57;1.67;;;;;;;;;;4953681;28;20035;-76
2023/12/10 14:01:43;;;;;;;11.98;2.40;;;;;;;;;;4936320;28;20069;-77
2023/12/10 14:04:09;;;;;;;10.38;1.60;;;;;;;;;;4965265;28;20026;-76
2023/12/10 14:06:38;;;;;;;12.55;2.10;;;;;;;;;;4967797;28;20039;-77
2023/12/10 14:20:38;;;;;;;18.08;2.20;;;;;;;;;;4957621;28;20038;-79
2023/12/10 14:23:06;;;;;;;21.70;1.90;;;;;;;;;;5042604;23;20050;-80
2023/12/10 14:25:32;;;;;;;14.65;2.17;;;;;;;;;;4983645;28;20043;-83
2023/12/10 14:27:59;;;;;;;11.32;1.95;;;;;;;;;;4956690;28;20091;-81
2023/12/10 14:30:26;;;;;;;21.13;4.50;;;;;;;;;;4954685;28;20031;-81
2023/12/10 14:32:55;;;;;;;9.48;1.88;;;;;;;;;;4952537;28;20058;-82
2023/12/10 14:35:23;;;;;;;17.65;2.78;;;;;;;;;;4949135;28;20032;-81
2023/12/10 14:37:49;;;;;;;12.27;2.10;;;;;;;;;;4950227;29;20039;-82
2023/12/10 14:40:14;;;;;;;12.07;1.77;;;;;;;;;;4950076;29;20031;-83
2023/12/10 14:42:43;;;;;;;11.45;2.05;;;;;;;;;;4922173;29;20035;-82
2023/12/10 14:45:10;;;;;;;;;;;;;;;;;;4965673;28;20035;-84
2023/12/10 14:47:36;;;;;;;15.55;2.83;;;;;;;;;;4959236;28;19914;-81
2023/12/10 14:50:06;;;;;;;9.68;2.30;;;;;;;;;;4957964;28;20054;-80
2023/12/10 14:52:32;;;;;;;10.18;2.35;;;;;;;;;;4956630;28;20463;-83
2023/12/10 14:55:01;;;;;;;10.80;2.40;;;;;;;;;;4951982;28;20031;-83
2023/12/10 14:57:27;;;;;;;13.15;2.15;;;;;;;;;;4955217;28;20035;-81
2023/12/10 15:00:18;;;;;;;17.88;2.20;;;;;;;;;;4946480;28;20040;-83
2023/12/10 15:02:44;;;;;;;14.25;2.25;;;;;;;;;;4940935;28;20034;-82
2023/12/10 15:05:12;;;;;;;15.77;2.05;;;;;;;;;;4954639;28;20376;-83
2023/12/10 15:07:41;;;;;;;10.38;2.28;;;;;;;;;;4955044;28;20034;-83
2023/12/10 15:10:12;;;;;;;11.85;2.33;;;;;;;;;;4954159;28;20030;-80
2023/12/10 15:12:39;;;;;;;11.48;2.08;;;;;;;;;;4953241;28;20039;-82
2023/12/10 15:15:07;;;;;;;14.60;2.60;;;;;;;;;;4969208;28;20031;-82
2023/12/10 15:17:33;;;;;;;18.90;2.22;;;;;;;;;;4950682;28;20043;-82
2023/12/10 15:19:59;;;;;;;10.07;1.95;;;;;;;;;;4967069;28;20042;-81
2023/12/10 15:22:26;;;;;;;14.55;2.40;;;;;;;;;;4952547;28;20102;-83
2023/12/10 15:24:54;;;;;;;13.13;2.33;;;;;;;;;;4953543;28;20499;-83
2023/12/10 15:27:20;;;;;;;11.20;2.08;;;;;;;;;;4952072;28;20062;-81